Mount Pleasant, MI

1:43 AM EDT on August 30, 2016 (GMT -0400)
Mount Pleasant Municipal

Weather History for KMOP - November, 2013

Change the Weather History Date:

Saturday, November 9, 2013

  Actual Average (KAMN) Record (KAMN)
Temperature  
Mean Temperature 43 °F -  
Max Temperature 50 °F 49 °F 75 °F (1999)
Min Temperature 36 °F 31 °F 12 °F (1991)
Degree Days  
Heating Degree Days 22    
Moisture  
Dew Point 33 °F    
Average Humidity 65    
Maximum Humidity 76    
Minimum Humidity 52    
Precipitation  
Precipitation 0.00 in - - ()
Sea Level Pressure  
Sea Level Pressure 29.84 in    
Wind  
Wind Speed 10 mph (SSW)    
Max Wind Speed 21 mph    
Max Gust Speed 45 mph    
Visibility 10 miles    
Events Rain    
Averages and records for this station are not official NWS values.
T = Trace of Precipitation, MM = Missing Value Source: NWS Daily Summary

Daily Weather History Graph

Daily Weather History Graph

Search for Another Location

Airport or City:

Trip Planner

Search our weather history database for the weather conditions in past years. The results will help you decide how hot, cold, wet, or windy it might be!

Date:

Astronomy

Nov. 09, 2013 Rise Set
Actual Time 7:25 AM EST 5:19 PM EST
Civil Twilight 6:54 AM EST 5:50 PM EST
Nautical Twilight 6:20 AM EST 6:24 PM EST
Astronomical Twilight 5:46 AM EST 6:58 PM EST
Moon 12:59 PM EST (11/9) 11:51 PM EST (11/9)
Length of Visible Light 10h 55m
Length of Day
9h 54m
Waxing Crescent, 44% of the Moon is Illuminated
Nov 9
Waxing Crescent
Nov 10
First Quarter
Nov 17
Full
Nov 25
Last Quarter
Dec 2
New

Hourly Weather History & Observations

Time (EST) Temp. Windchill Dew Point Humidity Pressure Visibility Wind Dir Wind Speed Gust Speed Precip Events Conditions
12:16 AM 36.5 °F 32.7 °F 29.3 °F 75% 30.09 in 10.0 mi SE 4.6 mph - N/A   Mostly Cloudy
12:36 AM 36.7 °F 32.9 °F 29.7 °F 76% 30.08 in 10.0 mi SE 4.6 mph - N/A   Scattered Clouds
12:55 AM 37.4 °F 32.8 °F 29.7 °F 74% 30.07 in 10.0 mi SE 5.8 mph - N/A   Mostly Cloudy
1:16 AM 37.8 °F 33.3 °F 29.7 °F 73% 30.06 in 10.0 mi SE 5.8 mph - N/A   Scattered Clouds
1:36 AM 37.4 °F 34.9 °F 29.8 °F 74% 30.05 in 10.0 mi SE 3.5 mph - N/A   Clear
1:55 AM 37.4 °F 32.8 °F 30.2 °F 75% 30.03 in 10.0 mi SE 5.8 mph - N/A   Mostly Cloudy
2:16 AM 37.4 °F 32.1 °F 30.2 °F 75% 30.02 in 10.0 mi ESE 6.9 mph - N/A   Overcast
2:36 AM 37.4 °F 30.8 °F 30.6 °F 76% 30.00 in 10.0 mi ESE 9.2 mph - N/A   Overcast
2:56 AM 37.9 °F 32.1 °F 30.6 °F 75% 29.98 in 10.0 mi SE 8.1 mph - N/A   Overcast
3:16 AM 38.7 °F 33.6 °F 30.6 °F 73% 29.98 in 10.0 mi SE 6.9 mph - N/A   Overcast
3:36 AM 40.3 °F 34.4 °F 30.2 °F 67% 29.96 in 10.0 mi SSE 9.2 mph - N/A   Light Drizzle
3:56 AM 40.5 °F 35.1 °F 30.6 °F 68% 29.94 in 10.0 mi SE 8.1 mph 16.1 mph N/A Rain Light Rain
4:16 AM 39.6 °F 35.4 °F 31.6 °F 73% 29.93 in 10.0 mi SE 5.8 mph - N/A   Overcast
4:36 AM 39.7 °F 34.3 °F 31.3 °F 72% 29.91 in 10.0 mi SE 8.1 mph - N/A   Overcast
4:56 AM 40.1 °F 33.2 °F 30.9 °F 70% 29.89 in 10.0 mi SE 11.5 mph - N/A   Overcast
5:16 AM 40.1 °F 34.7 °F 30.6 °F 69% 29.88 in 10.0 mi SSE 8.1 mph - N/A   Overcast
5:36 AM 40.1 °F 34.7 °F 30.2 °F 68% 29.86 in 10.0 mi SE 8.1 mph - N/A   Mostly Cloudy
5:56 AM 40.5 °F 35.1 °F 29.8 °F 66% 29.85 in 10.0 mi SE 8.1 mph - N/A   Mostly Cloudy
6:16 AM 40.5 °F 35.8 °F 29.7 °F 65% 29.84 in 10.0 mi SSE 6.9 mph - N/A   Mostly Cloudy
6:36 AM 41.0 °F 36.4 °F 29.7 °F 64% 29.83 in 10.0 mi SSE 6.9 mph - N/A   Overcast
6:56 AM 41.5 °F 36.4 °F 29.8 °F 63% 29.83 in 10.0 mi SSE 8.1 mph - N/A   Overcast
7:16 AM 40.8 °F 35.6 °F 30.4 °F 66% 29.82 in 10.0 mi SSE 8.1 mph - N/A   Overcast
7:36 AM 40.5 °F 35.1 °F 30.2 °F 67% 29.82 in 10.0 mi SSE 8.1 mph - N/A   Overcast
7:56 AM 41.5 °F 36.4 °F 30.6 °F 65% 29.81 in 10.0 mi South 8.1 mph - N/A   Overcast
8:16 AM 42.8 °F 37.0 °F 30.6 °F 62% 29.80 in 10.0 mi South 10.4 mph - N/A   Mostly Cloudy
8:36 AM 44.6 °F 40.2 °F 31.1 °F 59% 29.79 in 10.0 mi South 8.1 mph 17.3 mph N/A   Mostly Cloudy
8:56 AM 45.5 °F 40.8 °F 31.1 °F 57% 29.79 in 10.0 mi South 9.2 mph 17.3 mph N/A   Scattered Clouds
9:16 AM 45.9 °F 40.4 °F 31.5 °F 57% 29.78 in 10.0 mi South 11.5 mph - N/A   Scattered Clouds
9:36 AM 47.3 °F - 32.0 °F 55% 29.77 in 10.0 mi SSW 10.4 mph 19.6 mph N/A   Scattered Clouds
9:56 AM 47.3 °F - 32.5 °F 57% 29.76 in 10.0 mi South 11.5 mph 18.4 mph N/A   Clear
10:16 AM 48.2 °F - 33.6 °F 57% 29.76 in 10.0 mi South 12.7 mph 19.6 mph N/A   Clear
10:35 AM 48.2 °F - 34.5 °F 59% 29.75 in 10.0 mi SSW 15.0 mph 19.6 mph N/A   Mostly Cloudy
10:56 AM 48.6 °F - 35.8 °F 61% 29.74 in 10.0 mi SSW 11.5 mph 17.3 mph N/A   Overcast
11:16 AM 49.6 °F - 37.4 °F 63% 29.74 in 10.0 mi SW 12.7 mph 20.7 mph N/A   Overcast
11:35 AM 50.0 °F - 37.8 °F 63% 29.73 in 10.0 mi SSW 13.8 mph 20.7 mph N/A   Overcast
11:56 AM 49.6 °F - 37.8 °F 64% 29.73 in 10.0 mi SSW 11.5 mph 16.1 mph N/A   Overcast
12:16 PM 50.0 °F - 38.3 °F 64% 29.73 in 10.0 mi SW 15.0 mph - N/A   Overcast
12:35 PM 50.5 °F - 38.7 °F 64% 29.72 in 10.0 mi SW 20.7 mph 28.8 mph N/A   Overcast
12:56 PM 50.0 °F - 38.8 °F 66% 29.72 in 10.0 mi SW 19.6 mph 26.5 mph N/A   Overcast
1:16 PM 49.5 °F - 38.7 °F 66% 29.73 in 10.0 mi SW 17.3 mph 26.5 mph N/A   Overcast
1:35 PM 48.7 °F - 38.3 °F 67% 29.73 in 10.0 mi WSW 15.0 mph 33.4 mph N/A   Overcast
1:56 PM 48.6 °F - 38.3 °F 68% 29.73 in 10.0 mi WSW 13.8 mph 25.3 mph N/A   Overcast
2:16 PM 48.2 °F - 38.3 °F 69% 29.73 in 10.0 mi SW 17.3 mph 24.2 mph N/A   Overcast
2:35 PM 48.2 °F - 37.6 °F 67% 29.73 in 10.0 mi SW 16.1 mph 29.9 mph N/A   Overcast
2:56 PM 48.2 °F - 37.8 °F 67% 29.74 in 10.0 mi WSW 13.8 mph 26.5 mph N/A   Overcast
3:16 PM 48.2 °F - 37.8 °F 67% 29.75 in 10.0 mi WSW 18.4 mph 27.6 mph N/A   Overcast
3:35 PM 48.2 °F - 36.5 °F 64% 29.76 in 10.0 mi West 15.0 mph 28.8 mph N/A   Overcast
3:56 PM 48.4 °F - 35.6 °F 61% 29.76 in 10.0 mi WSW 13.8 mph 25.3 mph N/A   Overcast
4:16 PM 48.4 °F - 35.6 °F 61% 29.76 in 10.0 mi WSW 9.2 mph 18.4 mph N/A   Overcast
4:36 PM 48.6 °F - 35.6 °F 61% 29.77 in 10.0 mi WSW 10.4 mph 18.4 mph N/A   Overcast
4:56 PM 48.6 °F - 35.8 °F 61% 29.77 in 10.0 mi WSW 15.0 mph 19.6 mph N/A   Overcast
5:16 PM 48.7 °F - 36.0 °F 61% 29.78 in 10.0 mi WSW 11.5 mph 20.7 mph N/A   Overcast
5:36 PM 48.9 °F - 36.0 °F 61% 29.78 in 10.0 mi WSW 15.0 mph 21.9 mph N/A   Overcast
5:56 PM 48.7 °F - 36.5 °F 63% 29.78 in 10.0 mi WSW 11.5 mph 19.6 mph N/A   Overcast
6:16 PM 48.2 °F - 37.0 °F 65% 29.79 in 10.0 mi West 8.1 mph - N/A   Overcast
6:36 PM 47.8 °F - 37.4 °F 67% 29.80 in 10.0 mi WSW 11.5 mph 18.4 mph N/A   Overcast
6:56 PM 46.8 °F - 37.4 °F 70% 29.81 in 10.0 mi West 12.7 mph 19.6 mph N/A   Overcast
7:16 PM 46.4 °F 40.4 °F 37.6 °F 71% 29.82 in 10.0 mi West 13.8 mph 25.3 mph N/A   Overcast
7:36 PM 46.4 °F 39.8 °F 36.5 °F 68% 29.82 in 10.0 mi West 16.1 mph 25.3 mph N/A   Overcast
7:56 PM 46.4 °F 39.8 °F 35.6 °F 66% 29.83 in 10.0 mi West 16.1 mph 25.3 mph N/A   Overcast
8:15 PM 46.6 °F - 34.5 °F 63% 29.83 in 10.0 mi West 15.0 mph 21.9 mph N/A   Overcast
8:36 PM 46.6 °F - 32.7 °F 59% 29.83 in 10.0 mi West 15.0 mph 26.5 mph N/A   Overcast
8:56 PM 46.4 °F 41.1 °F 32.4 °F 58% 29.83 in 10.0 mi West 11.5 mph 21.9 mph N/A   Overcast
9:15 PM 46.6 °F - 32.4 °F 58% 29.84 in 10.0 mi West 17.3 mph 24.2 mph N/A   Overcast
9:36 PM 46.0 °F 39.3 °F 32.4 °F 59% 29.85 in 10.0 mi WNW 16.1 mph 24.2 mph N/A   Overcast
9:56 PM 45.1 °F 38.4 °F 32.0 °F 60% 29.85 in 10.0 mi West 15.0 mph 24.2 mph N/A   Overcast
10:15 PM 44.8 °F 36.9 °F 28.8 °F 53% 29.86 in 10.0 mi West 19.6 mph 44.9 mph N/A   Overcast
10:36 PM 44.6 °F 38.4 °F 27.7 °F 52% 29.86 in 10.0 mi West 12.7 mph 29.9 mph N/A   Overcast
10:56 PM 44.1 °F 36.5 °F 27.3 °F 52% 29.86 in 10.0 mi West 17.3 mph 28.8 mph N/A   Overcast
11:15 PM 43.7 °F 35.7 °F 27.3 °F 53% 29.87 in 10.0 mi West 18.4 mph 26.5 mph N/A   Overcast
11:36 PM 43.2 °F 37.4 °F 28.0 °F 55% 29.86 in 10.0 mi West 10.4 mph 20.7 mph N/A   Overcast
11:56 PM 42.8 °F 37.0 °F 28.4 °F 57% 29.86 in 10.0 mi West 10.4 mph 17.3 mph N/A   Overcast